< < Back
Terminal Aerodrome Forecast


Current Version              Previous Versions:   1  2  3  4  5  6  7  8  9  

Terminal Aerodrome Forecast

196
FTUS42 KJAX 042340
TAFGNV
TAF
KGNV 042340Z 0500/0524 30009KT P6SM FEW050 SCT250
      TEMPO 0500/0503 BKN080
     FM051300 29017G27KT P6SM FEW030=



Latest METAR

540
SAUS70 KWBC 050100 RRI
MTRGNV
METAR KGNV 050053Z 31007KT 10SM FEW060 SCT090 21/14 A2968 RMK AO2 LTG
DSNT E SLP049 T02110144


USA.gov is the U.S. government's official web portal to all federal, state and local government web resources and services.